createdAt,value
2023-05-15T00:00:02.004Z,21.31
2023-05-15T00:02:29.832Z,21.32
2023-05-15T00:04:56.728Z,21.32
2023-05-15T00:07:23.751Z,21.34
2023-05-15T00:09:50.582Z,21.32
2023-05-15T00:12:17.453Z,21.33
2023-05-15T00:14:44.441Z,21.33
2023-05-15T00:17:12.620Z,21.32
2023-05-15T00:19:39.798Z,21.31
2023-05-15T00:22:06.749Z,21.30
2023-05-15T00:24:34.949Z,21.29
2023-05-15T00:27:02.448Z,21.28
2023-05-15T00:29:29.263Z,21.25
2023-05-15T00:31:56.342Z,21.22
2023-05-15T00:34:25.598Z,21.20
2023-05-15T00:36:52.471Z,21.13
2023-05-15T00:39:19.310Z,21.07
2023-05-15T00:41:49.728Z,21.03
2023-05-15T00:44:19.935Z,21.00
2023-05-15T00:46:48.569Z,20.98
2023-05-15T00:49:18.358Z,20.98
2023-05-15T00:51:46.547Z,20.97
2023-05-15T00:54:13.519Z,20.97
2023-05-15T00:56:43.480Z,20.96
2023-05-15T00:59:11.184Z,20.96
2023-05-15T01:01:38.114Z,20.93
2023-05-15T01:04:05.484Z,20.93
2023-05-15T01:06:32.734Z,20.94
2023-05-15T01:09:03.818Z,20.93
2023-05-15T01:11:36.110Z,20.91
2023-05-15T01:14:05.576Z,20.88
2023-05-15T01:16:32.802Z,20.82
2023-05-15T01:18:59.913Z,20.74
2023-05-15T01:22:24.327Z,20.55
2023-05-15T01:25:37.862Z,20.46
2023-05-15T01:28:13.188Z,20.46
2023-05-15T01:30:44.734Z,20.49
2023-05-15T01:33:20.928Z,20.48
2023-05-15T01:35:59.057Z,20.48
2023-05-15T01:38:34.746Z,20.48
2023-05-15T01:41:10.417Z,20.41
2023-05-15T01:43:45.109Z,20.33
2023-05-15T01:46:17.076Z,20.28
2023-05-15T01:48:45.915Z,20.26
2023-05-15T01:51:16.327Z,20.25
2023-05-15T01:53:45.819Z,20.29
2023-05-15T01:56:15.235Z,20.31
2023-05-15T01:58:44.567Z,20.32
2023-05-15T02:01:13.410Z,20.31
2023-05-15T02:03:42.186Z,20.33
2023-05-15T02:06:09.832Z,20.35
2023-05-15T02:08:37.835Z,20.35
2023-05-15T02:11:05.671Z,20.33
2023-05-15T02:13:34.692Z,20.33
2023-05-15T02:16:03.191Z,20.32
2023-05-15T02:18:30.240Z,20.31
2023-05-15T02:20:57.162Z,20.27
2023-05-15T02:23:24.014Z,20.20
2023-05-15T02:26:26.414Z,20.07
2023-05-15T02:29:09.014Z,20.02
2023-05-15T02:31:48.519Z,19.98
2023-05-15T02:34:26.565Z,19.98
2023-05-15T02:37:00.294Z,20.00
2023-05-15T02:39:29.067Z,20.04
2023-05-15T02:41:59.599Z,20.07
2023-05-15T02:44:27.853Z,20.08
2023-05-15T02:46:57.122Z,20.10
2023-05-15T02:49:24.608Z,20.06
2023-05-15T02:51:51.579Z,19.98
2023-05-15T02:54:19.454Z,19.91
2023-05-15T02:56:46.360Z,19.84
2023-05-15T02:59:18.581Z,19.79
2023-05-15T03:01:46.728Z,19.77
2023-05-15T03:04:15.476Z,19.75
2023-05-15T03:06:42.469Z,19.72
2023-05-15T03:09:09.440Z,19.69
2023-05-15T03:11:36.309Z,19.66
2023-05-15T03:14:03.340Z,19.61
2023-05-15T03:16:30.303Z,19.55
2023-05-15T03:18:57.216Z,19.52
2023-05-15T03:21:25.431Z,19.46
2023-05-15T03:23:52.295Z,19.42
2023-05-15T03:26:19.176Z,19.38
2023-05-15T03:28:46.021Z,19.35
2023-05-15T03:31:14.166Z,19.32
2023-05-15T03:33:41.248Z,19.30
2023-05-15T03:36:08.523Z,19.31
2023-05-15T03:38:36.992Z,19.32
2023-05-15T03:41:03.854Z,19.35
2023-05-15T03:43:30.685Z,19.42
2023-05-15T03:45:58.871Z,19.47
2023-05-15T03:48:25.724Z,19.53
2023-05-15T03:50:52.885Z,19.55
2023-05-15T03:53:19.886Z,19.56
2023-05-15T03:55:48.175Z,19.58
2023-05-15T03:58:15.160Z,19.59
2023-05-15T04:00:42.204Z,19.57
2023-05-15T04:03:09.281Z,19.55
2023-05-15T04:05:36.278Z,19.55
2023-05-15T04:08:03.260Z,19.58
2023-05-15T04:10:31.942Z,19.62
2023-05-15T04:13:00.149Z,19.60
2023-05-15T04:15:28.619Z,19.55
2023-05-15T04:17:55.877Z,19.49
2023-05-15T04:20:24.800Z,19.43
2023-05-15T04:22:53.211Z,19.38
2023-05-15T04:25:20.504Z,19.32
2023-05-15T04:27:47.656Z,19.26
2023-05-15T04:30:16.124Z,19.23
2023-05-15T04:32:43.303Z,19.19
2023-05-15T04:35:12.558Z,19.15
2023-05-15T04:37:41.368Z,19.09
2023-05-15T04:40:09.945Z,19.07
2023-05-15T04:42:39.194Z,19.03
2023-05-15T04:45:09.063Z,18.98
2023-05-15T04:47:37.886Z,18.95
2023-05-15T04:50:06.626Z,18.91
2023-05-15T04:52:33.606Z,18.89
2023-05-15T04:55:00.738Z,18.85
2023-05-15T04:57:27.970Z,18.84
2023-05-15T04:59:54.866Z,18.87
2023-05-15T05:02:23.333Z,18.87
2023-05-15T05:04:51.661Z,18.87
2023-05-15T05:07:18.832Z,18.91
2023-05-15T05:09:45.787Z,18.95
2023-05-15T05:12:12.942Z,19.00
2023-05-15T05:14:41.936Z,19.02
2023-05-15T05:17:09.136Z,19.05
2023-05-15T05:19:36.002Z,19.07
2023-05-15T05:22:05.320Z,19.10
2023-05-15T05:24:32.583Z,19.12
2023-05-15T05:27:00.162Z,19.18
2023-05-15T05:29:27.159Z,19.20
2023-05-15T05:31:54.197Z,19.26
2023-05-15T05:34:21.284Z,19.33
2023-05-15T05:36:48.719Z,19.44
2023-05-15T05:39:17.391Z,19.60
2023-05-15T05:41:44.680Z,19.76
2023-05-15T05:44:11.699Z,19.92
2023-05-15T05:46:38.682Z,20.06
2023-05-15T05:49:05.973Z,20.22
2023-05-15T05:51:34.554Z,20.35
2023-05-15T05:54:01.505Z,20.42
2023-05-15T05:56:29.941Z,20.51
2023-05-15T05:58:57.037Z,20.60
2023-05-15T06:01:24.173Z,20.69
2023-05-15T06:03:51.851Z,20.80
2023-05-15T06:06:19.960Z,20.89
2023-05-15T06:08:46.784Z,20.97
2023-05-15T06:11:13.651Z,21.04
2023-05-15T06:13:41.980Z,21.05
2023-05-15T06:16:32.488Z,21.03
2023-05-15T06:18:59.759Z,21.03
2023-05-15T06:21:31.422Z,21.06
2023-05-15T06:23:59.339Z,21.08
2023-05-15T06:26:30.034Z,21.12
2023-05-15T06:28:58.614Z,21.17
2023-05-15T06:31:26.385Z,21.26
2023-05-15T06:34:08.173Z,21.32
2023-05-15T06:37:08.553Z,21.31
2023-05-15T06:39:36.492Z,21.33
2023-05-15T06:42:03.788Z,21.39
2023-05-15T06:44:32.089Z,21.47
2023-05-15T06:46:59.702Z,21.57
2023-05-15T06:49:27.747Z,21.66
2023-05-15T06:51:55.138Z,21.70
2023-05-15T06:54:21.991Z,21.74
2023-05-15T06:56:48.864Z,21.77
2023-05-15T06:59:15.725Z,21.80
2023-05-15T07:01:44.193Z,21.84
2023-05-15T07:04:13.494Z,21.88
2023-05-15T07:06:40.413Z,21.93
2023-05-15T07:09:07.472Z,21.99
2023-05-15T07:11:37.260Z,22.04
2023-05-15T07:14:04.350Z,22.10
2023-05-15T07:16:31.241Z,22.13
2023-05-15T07:19:00.625Z,22.20
2023-05-15T07:21:27.562Z,22.23
2023-05-15T07:23:54.433Z,22.30
2023-05-15T07:26:32.459Z,22.38
2023-05-15T07:29:01.479Z,22.48
2023-05-15T07:31:28.440Z,22.55
2023-05-15T07:33:55.471Z,22.59
2023-05-15T07:36:23.712Z,22.61
2023-05-15T07:38:50.557Z,22.60
2023-05-15T07:41:17.414Z,22.64
2023-05-15T07:43:44.312Z,22.67
2023-05-15T07:46:11.429Z,22.74
2023-05-15T07:48:38.363Z,22.86
2023-05-15T07:51:05.503Z,22.94
2023-05-15T07:53:33.695Z,23.15
2023-05-15T07:56:00.676Z,23.75
2023-05-15T07:58:28.555Z,24.64
2023-05-15T08:00:56.048Z,25.72
2023-05-15T08:03:23.254Z,26.73
2023-05-15T08:05:50.331Z,27.39
2023-05-15T08:08:17.188Z,27.98
2023-05-15T08:10:45.773Z,28.72
2023-05-15T08:13:12.754Z,29.46
2023-05-15T08:15:39.688Z,30.14
2023-05-15T08:18:10.007Z,30.90
2023-05-15T08:20:37.594Z,31.51
2023-05-15T08:23:04.535Z,31.98
2023-05-15T08:25:31.425Z,32.45
2023-05-15T08:27:59.613Z,32.95
2023-05-15T08:30:26.639Z,33.53
2023-05-15T08:32:53.824Z,34.12
2023-05-15T08:35:20.764Z,34.61
2023-05-15T08:37:47.767Z,35.15
2023-05-15T08:40:15.255Z,35.64
2023-05-15T08:42:45.788Z,35.88
2023-05-15T08:45:14.788Z,36.00
2023-05-15T08:47:43.311Z,36.24
2023-05-15T08:50:13.980Z,36.46
2023-05-15T08:52:42.830Z,36.84
2023-05-15T08:55:11.290Z,37.35
2023-05-15T08:57:39.885Z,37.62
2023-05-15T09:00:09.249Z,37.63
2023-05-15T09:02:39.498Z,37.51
2023-05-15T09:05:08.558Z,37.61
2023-05-15T09:07:38.591Z,37.70
2023-05-15T09:10:08.226Z,37.82
2023-05-15T09:12:41.769Z,37.81
2023-05-15T09:15:10.907Z,37.83
2023-05-15T09:17:39.897Z,38.08
2023-05-15T09:20:24.037Z,38.06
2023-05-15T09:22:50.875Z,38.00
2023-05-15T09:25:34.434Z,38.02
2023-05-15T09:28:01.650Z,38.15
2023-05-15T09:30:30.909Z,38.43
2023-05-15T09:33:03.411Z,38.93
2023-05-15T09:35:35.332Z,39.21
2023-05-15T09:38:03.994Z,39.18
2023-05-15T09:40:32.074Z,39.09
2023-05-15T09:42:59.576Z,38.68
2023-05-15T09:45:29.738Z,38.13
2023-05-15T09:48:04.347Z,37.97
2023-05-15T09:50:36.494Z,38.19
2023-05-15T09:53:04.510Z,38.63
2023-05-15T09:55:36.117Z,38.76
2023-05-15T09:58:08.094Z,38.47
2023-05-15T10:00:48.485Z,38.23
2023-05-15T10:03:22.387Z,38.38
2023-05-15T10:05:58.902Z,38.82
2023-05-15T10:08:30.154Z,39.38
2023-05-15T10:11:03.465Z,40.00
2023-05-15T10:13:34.824Z,40.32
2023-05-15T10:16:05.207Z,40.17
2023-05-15T10:18:38.301Z,40.27
2023-05-15T10:21:08.857Z,40.80
2023-05-15T10:23:37.562Z,40.77
2023-05-15T10:26:14.129Z,40.33
2023-05-15T10:28:44.759Z,40.06
2023-05-15T10:31:13.451Z,39.92
2023-05-15T10:33:42.700Z,40.02
2023-05-15T10:36:11.036Z,40.04
2023-05-15T10:38:39.949Z,39.94
2023-05-15T10:43:44.019Z,39.95
2023-05-15T10:46:11.779Z,39.78
2023-05-15T10:48:41.621Z,39.69
2023-05-15T10:51:16.070Z,39.43
2023-05-15T10:53:44.757Z,39.14
2023-05-15T10:56:17.016Z,38.83
2023-05-15T10:58:48.763Z,38.08
2023-05-15T11:01:27.907Z,37.16
2023-05-15T11:04:14.709Z,36.16
2023-05-15T11:06:43.965Z,35.42
2023-05-15T11:09:39.610Z,34.66
2023-05-15T11:12:09.490Z,34.43
2023-05-15T11:14:39.800Z,34.16
2023-05-15T11:17:09.336Z,33.85
2023-05-15T11:19:58.715Z,33.51
2023-05-15T11:22:35.940Z,33.42
2023-05-15T11:25:08.678Z,33.41
2023-05-15T11:27:40.263Z,33.30
2023-05-15T11:30:14.754Z,33.14
2023-05-15T11:32:56.366Z,33.14
2023-05-15T11:35:29.287Z,32.92
2023-05-15T11:37:58.837Z,32.47
2023-05-15T11:40:28.765Z,32.00
2023-05-15T11:43:08.096Z,31.63
2023-05-15T11:45:37.277Z,31.34
2023-05-15T11:48:08.027Z,31.13
2023-05-15T11:50:36.393Z,31.01
2023-05-15T11:53:06.184Z,30.91
2023-05-15T11:55:35.568Z,30.77
2023-05-15T11:58:04.300Z,30.83
2023-05-15T12:00:31.761Z,31.02
2023-05-15T12:02:58.832Z,31.41
2023-05-15T12:05:25.854Z,31.79
2023-05-15T12:07:54.319Z,31.67
2023-05-15T12:10:21.334Z,31.48
2023-05-15T12:12:49.837Z,31.27
2023-05-15T12:15:17.689Z,31.17
2023-05-15T12:17:46.350Z,31.41
2023-05-15T12:20:18.446Z,31.33
2023-05-15T12:22:45.719Z,31.04
2023-05-15T12:25:16.076Z,30.90
2023-05-15T12:27:43.581Z,30.79
2023-05-15T12:30:13.601Z,30.93
2023-05-15T12:32:42.322Z,31.39
2023-05-15T12:35:12.150Z,31.66
2023-05-15T12:37:39.857Z,31.82
2023-05-15T12:40:11.911Z,31.87
2023-05-15T12:42:42.430Z,32.01
2023-05-15T12:45:15.214Z,32.00
2023-05-15T12:47:43.380Z,32.14
2023-05-15T12:50:15.977Z,32.10
2023-05-15T12:52:53.463Z,31.89
2023-05-15T12:55:25.351Z,31.74
2023-05-15T12:57:56.240Z,31.90
2023-05-15T13:00:23.397Z,31.94
2023-05-15T13:02:55.460Z,31.77
2023-05-15T13:05:23.928Z,31.66
2023-05-15T13:07:52.254Z,31.76
2023-05-15T13:10:23.102Z,31.82
2023-05-15T13:12:53.371Z,31.72
2023-05-15T13:15:29.041Z,31.53
2023-05-15T13:18:00.358Z,31.38
2023-05-15T13:20:29.006Z,31.39
2023-05-15T13:22:56.170Z,31.69
2023-05-15T13:25:23.145Z,31.76
2023-05-15T13:27:50.752Z,31.70
2023-05-15T13:30:19.773Z,31.82
2023-05-15T13:32:47.065Z,31.67
2023-05-15T13:35:14.271Z,31.53
2023-05-15T13:37:41.374Z,31.51
2023-05-15T13:40:10.690Z,31.69
2023-05-15T13:42:37.899Z,32.11
2023-05-15T13:45:07.200Z,32.20
2023-05-15T13:47:35.786Z,32.19
2023-05-15T13:50:03.197Z,32.08
2023-05-15T13:52:30.562Z,31.95
2023-05-15T13:54:57.475Z,31.85
2023-05-15T13:57:24.513Z,31.86
2023-05-15T13:59:51.443Z,31.82
2023-05-15T14:02:18.479Z,31.53
2023-05-15T14:04:47.241Z,31.31
2023-05-15T14:07:14.231Z,31.14
2023-05-15T14:09:41.155Z,31.08
2023-05-15T14:12:09.697Z,30.99
2023-05-15T14:14:36.897Z,30.72
2023-05-15T14:17:04.319Z,30.60
2023-05-15T14:19:31.471Z,30.53
2023-05-15T14:21:59.774Z,30.35
2023-05-15T14:24:26.705Z,30.12
2023-05-15T14:26:53.606Z,30.01
2023-05-15T14:29:20.495Z,30.18
2023-05-15T14:31:47.430Z,30.42
2023-05-15T14:34:14.746Z,30.71
2023-05-15T14:36:41.651Z,30.89
2023-05-15T14:39:09.835Z,30.88
2023-05-15T14:41:36.796Z,30.80
2023-05-15T14:44:03.949Z,30.71
2023-05-15T14:46:31.000Z,30.58
2023-05-15T14:48:57.927Z,30.34
2023-05-15T14:51:24.850Z,30.02
2023-05-15T14:53:51.813Z,29.89
2023-05-15T14:56:20.080Z,29.78
2023-05-15T14:58:47.327Z,29.50
2023-05-15T15:01:14.240Z,29.22
2023-05-15T15:03:42.604Z,28.99
2023-05-15T15:06:09.707Z,28.80
2023-05-15T15:08:36.769Z,28.62
2023-05-15T15:11:03.808Z,28.45
2023-05-15T15:13:32.205Z,28.26
2023-05-15T15:15:59.164Z,27.97
2023-05-15T15:18:26.258Z,27.77
2023-05-15T15:20:53.197Z,27.75
2023-05-15T15:23:20.366Z,27.68
2023-05-15T15:25:47.320Z,27.64
2023-05-15T15:28:14.247Z,27.65
2023-05-15T15:30:42.464Z,27.86
2023-05-15T15:33:09.475Z,28.01
2023-05-15T15:35:36.416Z,28.10
2023-05-15T15:38:03.600Z,28.09
2023-05-15T15:40:30.720Z,28.11
2023-05-15T15:42:57.774Z,28.28
2023-05-15T15:45:24.990Z,28.46
2023-05-15T15:47:53.306Z,28.57
2023-05-15T15:50:20.237Z,28.61
2023-05-15T15:52:47.077Z,28.55
2023-05-15T15:55:13.973Z,28.34
2023-05-15T15:57:40.830Z,28.10
2023-05-15T16:00:09.521Z,28.00
2023-05-15T16:02:36.711Z,27.92
2023-05-15T16:05:07.117Z,27.73
2023-05-15T16:07:34.310Z,27.50
2023-05-15T16:10:11.964Z,27.43
2023-05-15T16:12:44.916Z,27.40
2023-05-15T16:15:22.336Z,27.34
2023-05-15T16:17:53.237Z,27.25
2023-05-15T16:20:22.618Z,27.23
2023-05-15T16:22:50.001Z,27.25
2023-05-15T16:25:17.049Z,27.31
2023-05-15T16:27:43.996Z,27.27
2023-05-15T16:30:14.648Z,27.18
2023-05-15T16:32:41.571Z,26.94
2023-05-15T16:35:09.314Z,26.62
2023-05-15T16:37:37.631Z,26.30
2023-05-15T16:40:06.098Z,26.04
2023-05-15T16:42:36.576Z,25.83
2023-05-15T16:45:04.771Z,25.65
2023-05-15T16:47:31.699Z,25.54
2023-05-15T16:49:58.745Z,25.43
2023-05-15T16:52:25.728Z,25.33
2023-05-15T16:54:54.175Z,25.18
2023-05-15T16:57:21.062Z,24.96
2023-05-15T16:59:47.985Z,24.72
2023-05-15T17:02:15.009Z,24.48
2023-05-15T17:04:41.946Z,24.23
2023-05-15T17:07:09.196Z,23.94
2023-05-15T17:09:38.310Z,23.70
2023-05-15T17:12:07.512Z,23.55
2023-05-15T17:14:34.525Z,23.41
2023-05-15T17:17:01.690Z,23.19
2023-05-15T17:19:28.606Z,22.90
2023-05-15T17:21:55.472Z,22.64
2023-05-15T17:24:22.328Z,22.46
2023-05-15T17:26:49.154Z,22.26
2023-05-15T17:29:17.393Z,22.08
2023-05-15T17:31:44.294Z,21.95
2023-05-15T17:34:11.553Z,21.84
2023-05-15T17:36:39.070Z,21.70
2023-05-15T17:39:05.967Z,21.55
2023-05-15T17:41:32.847Z,21.41
2023-05-15T17:43:59.714Z,21.29
2023-05-15T17:46:28.042Z,21.24
2023-05-15T17:48:54.983Z,21.23
2023-05-15T17:51:21.894Z,21.24
2023-05-15T17:53:49.196Z,21.22
2023-05-15T17:56:16.069Z,21.16
2023-05-15T17:58:42.994Z,21.13
2023-05-15T18:01:09.921Z,21.07
2023-05-15T18:03:39.667Z,20.97
2023-05-15T18:06:08.578Z,20.87
2023-05-15T18:08:35.402Z,20.82
2023-05-15T18:11:08.455Z,20.79
2023-05-15T18:13:38.209Z,20.72
2023-05-15T18:16:06.123Z,20.64
2023-05-15T18:18:35.135Z,20.55
2023-05-15T18:21:03.655Z,20.51
2023-05-15T18:23:30.580Z,20.47
2023-05-15T18:25:57.476Z,20.43
2023-05-15T18:28:24.348Z,20.38
2023-05-15T18:30:51.242Z,20.33
2023-05-15T18:33:18.282Z,20.30
2023-05-15T18:35:45.246Z,20.24
2023-05-15T18:38:13.419Z,20.18
2023-05-15T18:40:40.372Z,20.10
2023-05-15T18:43:07.400Z,20.05
2023-05-15T18:45:34.346Z,19.98
2023-05-15T18:48:01.239Z,19.88
2023-05-15T18:50:28.266Z,19.83
2023-05-15T18:52:55.196Z,19.78
2023-05-15T18:55:24.003Z,19.75
2023-05-15T18:57:51.617Z,19.74
2023-05-15T19:00:34.062Z,19.76
2023-05-15T19:03:05.465Z,19.75
2023-05-15T19:05:33.771Z,19.71
2023-05-15T19:08:01.039Z,19.62
2023-05-15T19:10:30.313Z,19.55
2023-05-15T19:12:57.696Z,19.47
2023-05-15T19:15:25.411Z,19.39
2023-05-15T19:17:52.489Z,19.31
2023-05-15T19:20:19.843Z,19.25
2023-05-15T19:22:46.782Z,19.20
2023-05-15T19:25:13.721Z,19.19
2023-05-15T19:27:41.936Z,19.18
2023-05-15T19:30:10.257Z,19.16
2023-05-15T19:32:37.690Z,19.12
2023-05-15T19:35:05.894Z,19.08
2023-05-15T19:37:32.766Z,19.03
2023-05-15T19:39:59.778Z,19.01
2023-05-15T19:42:26.800Z,19.01
2023-05-15T19:44:55.011Z,19.04
2023-05-15T19:47:21.992Z,19.05
2023-05-15T19:49:48.951Z,19.07
2023-05-15T19:52:15.937Z,19.06
2023-05-15T19:54:42.870Z,19.02
2023-05-15T19:57:09.814Z,19.00
2023-05-15T19:59:36.693Z,18.99
2023-05-15T20:02:09.013Z,19.01
2023-05-15T20:04:36.819Z,19.04
2023-05-15T20:07:04.277Z,19.08
2023-05-15T20:09:31.133Z,19.09
2023-05-15T20:11:58.148Z,19.09
2023-05-15T20:14:25.174Z,19.07
2023-05-15T20:16:52.058Z,19.02
2023-05-15T20:19:21.921Z,18.95
2023-05-15T20:21:49.147Z,18.87
2023-05-15T20:24:17.484Z,18.81
2023-05-15T20:26:45.081Z,18.78
2023-05-15T20:29:12.005Z,18.75
2023-05-15T20:31:40.343Z,18.70
2023-05-15T20:34:08.164Z,18.64
2023-05-15T20:36:38.684Z,18.63
2023-05-15T20:39:07.236Z,18.60
2023-05-15T20:41:34.820Z,18.57
2023-05-15T20:44:02.023Z,18.55
2023-05-15T20:46:30.116Z,18.54
2023-05-15T20:48:57.844Z,18.53
2023-05-15T20:51:25.019Z,18.53
2023-05-15T20:53:53.237Z,18.52
2023-05-15T20:56:21.054Z,18.53
2023-05-15T20:58:48.078Z,18.52
2023-05-15T21:01:15.847Z,18.50
2023-05-15T21:03:43.434Z,18.46
2023-05-15T21:06:10.654Z,18.44
2023-05-15T21:08:37.656Z,18.42
2023-05-15T21:11:05.908Z,18.41
2023-05-15T21:13:32.858Z,18.41
2023-05-15T21:15:59.788Z,18.39
2023-05-15T21:18:26.706Z,18.38
2023-05-15T21:20:53.640Z,18.38
2023-05-15T21:23:21.194Z,18.37
2023-05-15T21:25:48.354Z,18.34
2023-05-15T21:28:16.660Z,18.33
2023-05-15T21:30:43.617Z,18.34
2023-05-15T21:33:10.744Z,18.34
2023-05-15T21:35:38.153Z,18.35
2023-05-15T21:38:05.328Z,18.39
2023-05-15T21:40:32.275Z,18.43
2023-05-15T21:42:59.207Z,18.46
2023-05-15T21:45:27.461Z,18.48
2023-05-15T21:47:54.355Z,18.46
2023-05-15T21:50:21.292Z,18.46
2023-05-15T21:52:50.729Z,18.43
2023-05-15T21:55:25.325Z,18.44
2023-05-15T21:58:10.186Z,18.44
2023-05-15T22:00:39.706Z,18.44
2023-05-15T22:03:07.445Z,18.42
2023-05-15T22:05:34.401Z,18.40
2023-05-15T22:08:01.393Z,18.40
2023-05-15T22:10:28.466Z,18.41
2023-05-15T22:12:55.480Z,18.43
2023-05-15T22:15:22.649Z,18.46
2023-05-15T22:17:50.960Z,18.47
2023-05-15T22:20:18.876Z,18.49
2023-05-15T22:22:45.966Z,18.51
2023-05-15T22:25:12.928Z,18.48
2023-05-15T22:27:40.958Z,18.43
2023-05-15T22:30:09.158Z,18.38
2023-05-15T22:32:36.231Z,18.33
2023-05-15T22:35:05.557Z,18.29
2023-05-15T22:37:32.436Z,18.30
2023-05-15T22:39:59.806Z,18.29
2023-05-15T22:42:27.991Z,18.29
2023-05-15T22:44:57.873Z,18.30
2023-05-15T22:47:27.952Z,18.31
2023-05-15T22:49:54.897Z,18.33
2023-05-15T22:52:23.148Z,18.35
2023-05-15T22:54:50.045Z,18.35
2023-05-15T22:57:16.939Z,18.34
2023-05-15T22:59:44.610Z,18.35
2023-05-15T23:02:11.473Z,18.34
2023-05-15T23:04:38.348Z,18.33
2023-05-15T23:07:05.336Z,18.34
2023-05-15T23:09:33.555Z,18.34
2023-05-15T23:12:00.620Z,18.28
2023-05-15T23:14:27.598Z,18.24
2023-05-15T23:16:54.466Z,18.26
2023-05-15T23:19:21.431Z,18.26
2023-05-15T23:21:48.338Z,18.25
2023-05-15T23:24:15.995Z,18.24
2023-05-15T23:26:44.180Z,18.24
2023-05-15T23:29:11.172Z,18.22
2023-05-15T23:31:38.742Z,18.20
2023-05-15T23:34:06.834Z,18.18
2023-05-15T23:36:33.788Z,18.16
2023-05-15T23:39:00.707Z,18.13
2023-05-15T23:41:27.601Z,18.12
2023-05-15T23:43:55.874Z,18.10
2023-05-15T23:46:22.768Z,18.11
2023-05-15T23:48:49.622Z,18.12
2023-05-15T23:51:16.495Z,18.14
2023-05-15T23:53:43.436Z,18.14
2023-05-15T23:56:10.296Z,18.15
2023-05-15T23:58:37.175Z,18.11
